createdAt,value
2023-04-20T00:01:11.002Z,7.55
2023-04-20T00:06:18.162Z,7.31
2023-04-20T00:11:25.136Z,7.13
2023-04-20T00:16:29.412Z,6.68
2023-04-20T00:21:34.833Z,6.41
2023-04-20T00:26:38.809Z,6.31
2023-04-20T00:31:43.897Z,6.37
2023-04-20T00:36:49.246Z,6.18
2023-04-20T00:41:54.285Z,6.14
2023-04-20T00:46:58.560Z,5.89
2023-04-20T00:52:04.546Z,5.80
2023-04-20T00:57:08.510Z,5.70
2023-04-20T01:02:13.040Z,5.73
2023-04-20T01:07:20.092Z,5.54
2023-04-20T01:12:26.631Z,5.37
2023-04-20T01:17:30.609Z,5.38
2023-04-20T01:22:36.027Z,5.35
2023-04-20T01:27:40.033Z,5.28
2023-04-20T01:32:44.904Z,5.24
2023-04-20T01:37:50.303Z,5.50
2023-04-20T01:42:54.338Z,5.43
2023-04-20T01:47:59.839Z,5.33
2023-04-20T01:53:05.330Z,5.43
2023-04-20T01:58:09.265Z,5.43
2023-04-20T02:03:13.525Z,5.19
2023-04-20T02:08:19.251Z,5.14
2023-04-20T02:13:23.268Z,4.99
2023-04-20T02:18:28.046Z,4.95
2023-04-20T02:23:33.804Z,4.87
2023-04-20T02:28:37.893Z,4.96
2023-04-20T02:33:42.131Z,4.82
2023-04-20T02:38:47.439Z,4.72
2023-04-20T02:43:51.439Z,4.68
2023-04-20T02:48:56.616Z,4.57
2023-04-20T02:54:03.596Z,4.46
2023-04-20T02:59:09.068Z,4.30
2023-04-20T03:04:21.204Z,4.29
2023-04-20T03:09:49.580Z,4.29
2023-04-20T03:15:12.252Z,4.22
2023-04-20T03:20:35.594Z,4.23
2023-04-20T03:25:41.346Z,4.34
2023-04-20T03:30:51.065Z,4.52
2023-04-20T03:35:55.218Z,4.60
2023-04-20T03:41:00.595Z,4.71
2023-04-20T03:46:05.089Z,4.54
2023-04-20T03:51:09.073Z,4.91
2023-04-20T03:56:16.588Z,5.17
2023-04-20T04:01:20.649Z,5.31
2023-04-20T04:06:27.528Z,5.51
2023-04-20T04:11:33.133Z,5.50
2023-04-20T04:16:37.987Z,5.80
2023-04-20T04:21:43.267Z,6.01
2023-04-20T04:26:49.882Z,6.16
2023-04-20T04:31:55.712Z,6.28
2023-04-20T04:36:59.757Z,6.30
2023-04-20T04:42:17.627Z,6.45
2023-04-20T04:47:23.642Z,6.58
2023-04-20T04:52:30.018Z,7.01
2023-04-20T04:57:35.318Z,7.53
2023-04-20T05:02:39.681Z,7.70
2023-04-20T05:07:44.026Z,8.29
2023-04-20T05:12:50.188Z,7.86
2023-04-20T05:17:55.387Z,7.59
2023-04-20T05:22:59.314Z,7.80
2023-04-20T05:28:04.667Z,7.83
2023-04-20T05:33:08.691Z,7.76
2023-04-20T05:38:12.708Z,7.87
2023-04-20T05:43:19.329Z,7.95
2023-04-20T05:48:23.366Z,8.04
2023-04-20T05:53:27.470Z,8.08
2023-04-20T05:58:34.144Z,8.34
2023-04-20T06:03:38.366Z,8.72
2023-04-20T06:08:42.582Z,9.44
2023-04-20T06:13:48.016Z,9.95
2023-04-20T06:18:52.816Z,11.36
2023-04-20T06:23:56.945Z,12.26
2023-04-20T06:29:02.376Z,13.16
2023-04-20T06:34:06.337Z,13.07
2023-04-20T06:39:11.459Z,13.51
2023-04-20T06:44:16.797Z,14.17
2023-04-20T06:49:20.812Z,14.16
2023-04-20T06:54:24.710Z,13.57
2023-04-20T06:59:30.048Z,13.52
2023-04-20T07:04:34.055Z,12.98
2023-04-20T07:09:38.093Z,13.24
2023-04-20T07:14:43.423Z,13.28
2023-04-20T07:19:47.266Z,13.15
2023-04-20T07:24:51.645Z,12.53
2023-04-20T07:29:57.235Z,12.19
2023-04-20T07:35:01.198Z,11.72
2023-04-20T07:40:07.041Z,11.51
2023-04-20T07:45:14.460Z,11.52
2023-04-20T07:50:18.829Z,12.56
2023-04-20T07:55:22.845Z,12.92
2023-04-20T08:00:28.464Z,12.08
2023-04-20T08:05:32.590Z,11.07
2023-04-20T08:10:37.416Z,11.11
2023-04-20T08:15:43.012Z,11.07
2023-04-20T08:20:47.187Z,13.45
2023-04-20T08:25:51.051Z,14.57
2023-04-20T08:30:56.591Z,14.79
2023-04-20T08:36:00.562Z,16.58
2023-04-20T08:41:04.667Z,15.44
2023-04-20T08:46:10.558Z,14.83
2023-04-20T08:51:18.005Z,14.62
2023-04-20T08:56:22.089Z,14.97
2023-04-20T09:01:35.515Z,15.48
2023-04-20T09:06:44.975Z,17.11
2023-04-20T09:11:49.382Z,16.55
2023-04-20T09:16:57.679Z,15.57
2023-04-20T09:22:06.609Z,14.97
2023-04-20T09:27:19.659Z,16.07
2023-04-20T09:32:26.406Z,15.44
2023-04-20T09:37:30.785Z,15.34
2023-04-20T09:42:39.354Z,16.60
2023-04-20T09:47:45.792Z,14.96
2023-04-20T09:52:50.634Z,16.50
2023-04-20T09:57:55.534Z,17.66
2023-04-20T10:03:01.373Z,17.87
2023-04-20T10:08:05.604Z,15.30
2023-04-20T10:13:09.526Z,14.25
2023-04-20T10:18:19.502Z,17.08
2023-04-20T10:23:24.812Z,15.79
2023-04-20T10:28:40.735Z,15.09
2023-04-20T10:33:53.885Z,15.26
2023-04-20T10:38:58.042Z,15.41
2023-04-20T10:44:09.243Z,15.02
2023-04-20T10:49:14.510Z,15.40
2023-04-20T10:54:18.940Z,15.26
2023-04-20T10:59:24.898Z,14.82
2023-04-20T11:04:34.196Z,15.28
2023-04-20T11:09:38.840Z,14.40
2023-04-20T11:14:53.085Z,14.68
2023-04-20T11:20:05.966Z,14.93
2023-04-20T11:25:11.990Z,15.32
2023-04-20T11:30:16.071Z,15.40
2023-04-20T11:35:21.587Z,15.43
2023-04-20T11:40:26.707Z,15.30
2023-04-20T11:45:36.321Z,15.15
2023-04-20T11:50:42.682Z,16.16
2023-04-20T11:55:46.621Z,16.75
2023-04-20T12:00:50.739Z,16.79
2023-04-20T12:05:56.198Z,15.26
2023-04-20T12:11:00.245Z,13.63
2023-04-20T12:16:04.220Z,13.18
2023-04-20T12:21:09.657Z,12.88
2023-04-20T12:26:13.641Z,12.51
2023-04-20T12:31:17.668Z,11.70
2023-04-20T12:36:23.012Z,11.71
2023-04-20T12:41:26.972Z,12.25
2023-04-20T12:46:30.935Z,12.99
2023-04-20T12:51:36.236Z,12.99
2023-04-20T12:56:40.199Z,13.92
2023-04-20T13:01:44.083Z,14.42
2023-04-20T13:06:49.417Z,14.21
2023-04-20T13:17:21.771Z,13.83
2023-04-20T13:22:27.113Z,13.57
2023-04-20T13:27:31.654Z,13.80
2023-04-20T13:32:37.650Z,13.62
2023-04-20T13:37:45.704Z,13.61
2023-04-20T13:42:53.151Z,14.27
2023-04-20T13:47:56.820Z,15.73
2023-04-20T13:53:03.299Z,17.08
2023-04-20T13:58:07.437Z,17.25
2023-04-20T14:03:15.351Z,17.54
2023-04-20T14:08:24.411Z,17.28
2023-04-20T14:13:28.354Z,16.24
2023-04-20T14:18:32.262Z,16.47
2023-04-20T14:23:41.203Z,16.00
2023-04-20T14:28:45.898Z,15.77
2023-04-20T14:33:49.665Z,15.81
2023-04-20T14:38:55.584Z,15.81
2023-04-20T14:43:59.376Z,16.97
2023-04-20T14:49:03.099Z,15.73
2023-04-20T14:54:08.290Z,14.91
2023-04-20T14:59:12.140Z,14.82
2023-04-20T15:04:16.349Z,14.56
2023-04-20T15:09:21.770Z,14.88
2023-04-20T15:14:25.655Z,14.58
2023-04-20T15:19:29.493Z,14.05
2023-04-20T15:24:35.009Z,14.21
2023-04-20T15:29:38.823Z,13.99
2023-04-20T15:34:42.565Z,14.40
2023-04-20T15:39:47.734Z,14.03
2023-04-20T15:44:55.238Z,13.16
2023-04-20T15:50:01.764Z,12.86
2023-04-20T15:55:08.839Z,12.53
2023-04-20T16:00:16.196Z,12.26
2023-04-20T16:05:19.761Z,11.98
2023-04-20T16:10:26.915Z,11.69
2023-04-20T16:15:31.459Z,11.47
2023-04-20T16:20:35.950Z,11.27
2023-04-20T16:25:41.312Z,11.04
2023-04-20T16:30:45.680Z,10.96
2023-04-20T16:35:51.309Z,10.96
2023-04-20T16:40:56.468Z,11.03
2023-04-20T16:46:00.353Z,10.96
2023-04-20T16:51:04.203Z,10.61
2023-04-20T16:56:11.464Z,10.56
2023-04-20T17:01:15.392Z,10.45
2023-04-20T17:06:19.232Z,10.54
2023-04-20T17:11:24.462Z,10.40
2023-04-20T17:16:28.844Z,10.19
2023-04-20T17:21:32.736Z,10.28
2023-04-20T17:26:46.837Z,10.28
2023-04-20T17:31:51.694Z,10.12
2023-04-20T17:36:55.497Z,9.81
2023-04-20T17:42:01.489Z,9.73
2023-04-20T17:47:06.450Z,9.49
2023-04-20T17:52:12.642Z,9.48
2023-04-20T17:57:17.853Z,9.27
2023-04-20T18:02:21.838Z,9.15
2023-04-20T18:07:25.776Z,9.19
2023-04-20T18:12:31.008Z,9.17
2023-04-20T18:17:36.428Z,8.94
2023-04-20T18:22:40.330Z,8.69
2023-04-20T18:27:45.818Z,8.31
2023-04-20T18:32:49.684Z,8.15
2023-04-20T18:37:56.181Z,7.91
2023-04-20T18:43:01.643Z,7.76
2023-04-20T18:48:06.631Z,7.81
2023-04-20T18:53:10.679Z,7.76
2023-04-20T18:58:15.837Z,7.75
2023-04-20T19:03:19.873Z,7.71
2023-04-20T19:08:24.397Z,7.65
2023-04-20T19:13:29.558Z,7.45
2023-04-20T19:18:34.439Z,7.41
2023-04-20T19:23:38.243Z,7.49
2023-04-20T19:28:43.436Z,7.12
2023-04-20T19:33:47.259Z,7.27
2023-04-20T19:38:51.093Z,7.19
2023-04-20T19:43:56.366Z,7.20
2023-04-20T19:49:00.526Z,7.24
2023-04-20T19:54:04.882Z,7.12
2023-04-20T19:59:10.041Z,7.23
2023-04-20T20:04:17.272Z,7.34
2023-04-20T20:09:24.049Z,6.92
2023-04-20T20:14:32.097Z,6.93
2023-04-20T20:19:35.879Z,6.96
2023-04-20T20:24:44.473Z,7.00
2023-04-20T20:29:50.023Z,7.01
2023-04-20T20:34:53.968Z,6.96
2023-04-20T20:39:57.910Z,7.11
2023-04-20T20:45:03.573Z,6.83
2023-04-20T20:50:08.898Z,6.92
2023-04-20T20:55:13.142Z,6.85
2023-04-20T21:00:19.052Z,6.96
2023-04-20T21:05:24.014Z,6.82
2023-04-20T21:10:27.948Z,6.60
2023-04-20T21:21:27.465Z,6.70
2023-04-20T21:26:37.679Z,6.56
2023-04-20T21:31:43.080Z,6.49
2023-04-20T21:36:47.037Z,6.59
2023-04-20T21:41:52.614Z,6.59
2023-04-20T21:46:58.203Z,6.60
2023-04-20T21:52:02.103Z,6.62
2023-04-20T21:57:07.666Z,6.58
2023-04-20T22:02:13.019Z,6.53
2023-04-20T22:07:18.136Z,6.54
2023-04-20T22:12:32.249Z,6.60
2023-04-20T22:17:46.485Z,6.81
2023-04-20T22:22:50.562Z,6.89
2023-04-20T22:27:54.477Z,7.02
2023-04-20T22:32:59.901Z,6.89
2023-04-20T22:38:03.838Z,6.85
2023-04-20T22:43:07.755Z,7.19
2023-04-20T22:48:13.169Z,7.33
2023-04-20T22:53:17.134Z,7.08
2023-04-20T22:58:21.149Z,7.15
2023-04-20T23:03:27.223Z,6.98
2023-04-20T23:08:33.549Z,6.75
2023-04-20T23:13:37.492Z,6.78
2023-04-20T23:18:42.832Z,6.58
2023-04-20T23:23:46.722Z,6.43
2023-04-20T23:28:52.458Z,6.15
2023-04-20T23:33:58.784Z,6.04
2023-04-20T23:39:04.755Z,6.09
2023-04-20T23:44:08.618Z,5.94
2023-04-20T23:49:13.904Z,5.87
2023-04-20T23:54:17.791Z,5.86
2023-04-20T23:59:21.723Z,5.71
